This is the latest recevied weather packets stored in our database for station/object F5PQL-4. If no packets are shown the sender has not sent any weather packets the latest 10 day(s).
| Time | Temp. | Humidity | Pressure | Rain* | Wind** | Luminosity | Snow |
|---|---|---|---|---|---|---|---|
| 1777578684 | 19.44° C | 48% | 1020.4 hPa | - | - | - | - |
| 1777577783 | 20° C | 48% | 1020.1 hPa | - | - | - | - |
| 1777572392 | 23.33° C | 37% | 1018.9 hPa | - | - | - | - |
| 1777570592 | 24.44° C | 34% | 1018.5 hPa | - | - | - | - |
| 1777568792 | 25.56° C | 33% | 1018.3 hPa | - | - | - | - |
| 1777567892 | 26.11° C | 33% | 1018.3 hPa | - | - | - | - |
| 1777563391 | 27.78° C | 29% | 1017.8 hPa | - | - | - | - |
| 1777562491 | 28.33° C | 28% | 1017.8 hPa | - | - | - | - |
| 1777560691 | 30° C | 26% | 1017.7 hPa | - | - | - | - |
| 1777559791 | 31.11° C | 24% | 1017.6 hPa | - | - | - | - |
| 1777558891 | 31.67° C | 23% | 1017.7 hPa | - | - | - | - |
| 1777552589 | 33.89° C | 19% | 1017.9 hPa | - | - | - | - |
| 1777551689 | 35.56° C | 21% | 1018 hPa | - | - | - | - |
| 1777550789 | 36.11° C | 21% | 1018.1 hPa | - | - | - | - |
| 1777547188 | 38.89° C | 19% | 1018.5 hPa | - | - | - | - |
| 1777545388 | 35.56° C | 21% | 1018.7 hPa | - | - | - | - |
| 1777544488 | 34.44° C | 22% | 1018.8 hPa | - | - | - | - |
| 1777543588 | 33.89° C | 22% | 1018.8 hPa | - | - | - | - |
| 1777542688 | 33.89° C | 22% | 1018.8 hPa | - | - | - | - |
| 1777541788 | 33.33° C | 23% | 1018.9 hPa | - | - | - | - |
| 1777540887 | 30° C | 26% | 1019 hPa | - | - | - | - |
| 1777539984 | 30.56° C | 25% | 1019 hPa | - | - | - | - |
| 1777539083 | 30° C | 27% | 1019.1 hPa | - | - | - | - |
| 1777538183 | 28.89° C | 27% | 1019 hPa | - | - | - | - |
| 1777537283 | 29.44° C | 25% | 1019 hPa | - | - | - | - |
* Rain since midnight (hover to see other rain measurements)
** Current wind speed in m/s (hover to see current wind gust speed)